Terminal Aerodrome Forecast
Issued by NWS

Home | Current Version | Previous Version | Text Only | Print | Product List | Glossary On
Versions: 1 2 3 4 5 6 7 8 9 10 11 12
787
FTUS42 KGSP 280521
TAFAND
TAF
KAND 280521Z 2806/2906 00000KT P6SM BKN250
     FM281000 22003KT P6SM SCT003
     FM281500 24007KT P6SM BKN200 PROB30 2815/2821 4SM -TSRA
      OVC025CB
     FM282300 24012KT P6SM BKN015 PROB30 2823/2905 4SM -TSRA
      OVC007CB=

USA.gov is the U.S. government's official web portal to all federal, state and local government web resources and services.